createdAt,value
2022-11-30T00:01:21.850Z,7.20
2022-11-30T00:04:00.898Z,7.20
2022-11-30T00:06:32.397Z,7.20
2022-11-30T00:09:02.279Z,7.20
2022-11-30T00:11:34.748Z,7.20
2022-11-30T00:14:09.178Z,7.20
2022-11-30T00:16:41.462Z,7.20
2022-11-30T00:19:09.839Z,7.20
2022-11-30T00:21:38.000Z,7.20
2022-11-30T00:24:06.352Z,7.20
2022-11-30T00:26:35.607Z,7.20
2022-11-30T00:31:45.028Z,7.20
2022-11-30T00:34:14.451Z,7.10
2022-11-30T00:36:41.961Z,7.10
2022-11-30T00:39:10.006Z,7.10
2022-11-30T00:41:37.818Z,7.20
2022-11-30T00:44:05.048Z,7.20
2022-11-30T00:46:32.449Z,7.20
2022-11-30T00:51:42.376Z,7.20
2022-11-30T00:54:28.490Z,7.20
2022-11-30T00:56:59.147Z,7.20
2022-11-30T00:59:29.861Z,7.20
2022-11-30T01:02:00.786Z,7.20
2022-11-30T01:04:27.919Z,7.20
2022-11-30T01:06:59.429Z,7.20
2022-11-30T01:09:27.211Z,7.20
2022-11-30T01:12:11.108Z,7.20
2022-11-30T01:14:46.385Z,7.20
2022-11-30T01:17:14.923Z,7.20
2022-11-30T01:19:43.067Z,7.20
2022-11-30T01:22:32.784Z,7.20
2022-11-30T01:25:01.125Z,7.30
2022-11-30T01:27:31.637Z,7.30
2022-11-30T01:30:05.742Z,7.30
2022-11-30T01:32:35.443Z,7.30
2022-11-30T01:35:02.409Z,7.30
2022-11-30T01:37:38.164Z,7.30
2022-11-30T01:40:07.235Z,7.20
2022-11-30T01:42:46.664Z,7.20
2022-11-30T01:45:19.050Z,7.20
2022-11-30T01:47:56.412Z,7.30
2022-11-30T01:50:37.742Z,7.30
2022-11-30T01:53:11.233Z,7.30
2022-11-30T01:55:44.114Z,7.30
2022-11-30T01:58:19.165Z,7.30
2022-11-30T02:00:50.965Z,7.30
2022-11-30T02:03:53.836Z,7.30
2022-11-30T02:06:33.759Z,7.30
2022-11-30T02:09:05.758Z,7.30
2022-11-30T02:11:38.222Z,7.20
2022-11-30T02:14:21.452Z,7.20
2022-11-30T02:17:14.373Z,7.20
2022-11-30T02:20:02.804Z,7.10
2022-11-30T02:22:58.937Z,7.10
2022-11-30T02:26:12.999Z,7.10
2022-11-30T02:29:27.710Z,7.10
2022-11-30T02:32:08.361Z,7.00
2022-11-30T02:34:59.847Z,7.00
2022-11-30T02:37:30.488Z,7.00
2022-11-30T02:40:05.154Z,6.90
2022-11-30T02:42:37.450Z,6.90
2022-11-30T02:45:11.323Z,6.90
2022-11-30T02:47:51.086Z,6.90
2022-11-30T02:50:27.652Z,6.90
2022-11-30T02:52:56.707Z,6.90
2022-11-30T02:55:26.757Z,6.90
2022-11-30T02:57:56.652Z,6.90
2022-11-30T03:00:48.562Z,6.80
2022-11-30T03:03:16.709Z,6.80
2022-11-30T03:05:44.507Z,6.80
2022-11-30T03:08:24.841Z,6.70
2022-11-30T03:10:55.267Z,6.90
2022-11-30T03:13:24.294Z,6.70
2022-11-30T03:15:51.696Z,6.70
2022-11-30T03:18:34.014Z,6.60
2022-11-30T03:21:09.614Z,6.60
2022-11-30T03:23:39.913Z,6.60
2022-11-30T03:26:08.376Z,6.60
2022-11-30T03:28:41.932Z,6.60
2022-11-30T03:31:15.807Z,6.60
2022-11-30T03:33:49.612Z,6.50
2022-11-30T03:36:28.961Z,6.50
2022-11-30T03:38:59.509Z,6.40
2022-11-30T03:41:27.965Z,6.40
2022-11-30T03:43:59.283Z,6.40
2022-11-30T03:46:34.525Z,6.40
2022-11-30T03:49:12.715Z,6.40
2022-11-30T03:51:41.011Z,6.50
2022-11-30T03:54:12.045Z,6.50
2022-11-30T03:56:39.199Z,6.50
2022-11-30T03:59:06.079Z,6.40
2022-11-30T04:01:38.717Z,6.50
2022-11-30T04:04:08.301Z,6.50
2022-11-30T04:06:35.214Z,6.50
2022-11-30T04:09:05.686Z,6.50
2022-11-30T04:11:35.624Z,6.50
2022-11-30T04:14:06.765Z,6.50
2022-11-30T04:16:38.828Z,6.50
2022-11-30T04:19:07.138Z,6.50
2022-11-30T04:21:40.392Z,6.60
2022-11-30T04:24:32.839Z,6.50
2022-11-30T04:29:48.822Z,6.50
2022-11-30T04:32:18.630Z,6.50
2022-11-30T04:34:53.787Z,6.40
2022-11-30T04:37:34.508Z,6.50
2022-11-30T04:40:10.055Z,6.40
2022-11-30T04:42:37.946Z,6.40
2022-11-30T04:47:52.833Z,6.40
2022-11-30T04:50:21.951Z,6.50
2022-11-30T04:52:54.818Z,6.30
2022-11-30T04:55:25.816Z,6.40
2022-11-30T04:57:54.751Z,6.40
2022-11-30T05:00:22.332Z,6.40
2022-11-30T05:02:52.944Z,6.40
2022-11-30T05:05:20.482Z,6.40
2022-11-30T05:07:59.777Z,6.40
2022-11-30T05:10:28.859Z,6.40
2022-11-30T05:12:57.071Z,6.30
2022-11-30T05:15:23.962Z,6.40
2022-11-30T05:17:50.873Z,6.40
2022-11-30T05:20:17.858Z,6.40
2022-11-30T05:22:44.528Z,6.40
2022-11-30T05:25:11.353Z,6.40
2022-11-30T05:27:38.279Z,6.40
2022-11-30T05:30:06.332Z,6.40
2022-11-30T05:32:33.178Z,6.40
2022-11-30T05:34:59.918Z,6.40
2022-11-30T05:37:26.881Z,6.40
2022-11-30T05:39:53.779Z,6.40
2022-11-30T05:42:20.682Z,6.40
2022-11-30T05:44:48.562Z,6.40
2022-11-30T05:47:16.027Z,6.40
2022-11-30T05:50:04.813Z,6.40
2022-11-30T05:55:14.480Z,6.40
2022-11-30T05:57:46.124Z,6.50
2022-11-30T06:00:19.465Z,6.40
2022-11-30T06:02:54.081Z,6.40
2022-11-30T06:05:55.235Z,6.50
2022-11-30T06:08:29.291Z,6.40
2022-11-30T06:11:24.115Z,6.40
2022-11-30T06:13:51.496Z,6.40
2022-11-30T06:16:24.183Z,6.40
2022-11-30T06:18:53.831Z,6.50
2022-11-30T06:21:29.926Z,6.50
2022-11-30T06:23:57.741Z,6.40
2022-11-30T06:26:39.820Z,6.40
2022-11-30T06:29:09.283Z,6.50
2022-11-30T06:31:39.267Z,6.50
2022-11-30T06:34:10.498Z,6.50
2022-11-30T06:36:45.221Z,6.50
2022-11-30T06:39:26.909Z,6.50
2022-11-30T06:42:10.157Z,6.60
2022-11-30T06:44:41.471Z,6.50
2022-11-30T06:47:09.383Z,6.40
2022-11-30T06:49:44.904Z,6.40
2022-11-30T06:52:14.594Z,6.40
2022-11-30T06:54:50.238Z,6.50
2022-11-30T06:57:21.319Z,6.50
2022-11-30T06:59:52.844Z,6.50
2022-11-30T07:02:22.405Z,6.40
2022-11-30T07:07:32.836Z,6.40
2022-11-30T07:10:07.487Z,6.40
2022-11-30T07:12:37.828Z,6.40
2022-11-30T07:18:04.783Z,6.40
2022-11-30T07:20:31.666Z,6.40
2022-11-30T07:23:18.380Z,6.40
2022-11-30T07:26:04.080Z,6.30
2022-11-30T07:28:30.838Z,6.30
2022-11-30T07:30:57.520Z,6.20
2022-11-30T07:33:24.256Z,6.20
2022-11-30T07:35:53.584Z,6.30
2022-11-30T07:38:20.522Z,6.40
2022-11-30T07:40:47.265Z,6.40
2022-11-30T07:43:15.935Z,6.40
2022-11-30T07:45:42.890Z,6.40
2022-11-30T07:48:09.860Z,6.40
2022-11-30T07:50:36.604Z,6.40
2022-11-30T07:53:03.447Z,6.40
2022-11-30T07:55:30.979Z,6.50
2022-11-30T07:57:57.689Z,6.50
2022-11-30T08:00:24.530Z,6.50
2022-11-30T08:02:51.804Z,6.50
2022-11-30T08:05:18.567Z,6.50
2022-11-30T08:07:45.817Z,6.50
2022-11-30T08:10:12.691Z,6.50
2022-11-30T08:12:39.502Z,6.50
2022-11-30T08:15:27.491Z,6.60
2022-11-30T08:17:55.210Z,6.50
2022-11-30T08:20:22.508Z,6.60
2022-11-30T08:22:49.738Z,6.60
2022-11-30T08:25:16.628Z,6.60
2022-11-30T08:27:43.430Z,6.60
2022-11-30T08:30:10.427Z,6.60
2022-11-30T08:32:37.322Z,6.60
2022-11-30T08:35:04.436Z,6.70
2022-11-30T08:37:31.367Z,6.70
2022-11-30T08:39:59.721Z,6.70
2022-11-30T08:42:32.095Z,6.70
2022-11-30T08:45:01.815Z,6.60
2022-11-30T08:47:56.294Z,6.70
2022-11-30T08:50:36.947Z,6.70
2022-11-30T08:53:11.773Z,6.70
2022-11-30T08:55:47.432Z,6.70
2022-11-30T08:58:16.667Z,6.70
2022-11-30T09:03:33.139Z,6.70
2022-11-30T09:06:07.580Z,6.70
2022-11-30T09:08:44.683Z,6.70
2022-11-30T09:11:18.571Z,6.70
2022-11-30T09:14:05.865Z,6.70
2022-11-30T09:16:38.760Z,6.70
2022-11-30T09:19:05.628Z,6.70
2022-11-30T09:21:34.977Z,6.70
2022-11-30T09:24:02.795Z,6.70
2022-11-30T09:26:34.330Z,6.70
2022-11-30T09:29:03.802Z,6.70
2022-11-30T09:31:33.189Z,6.70
2022-11-30T09:34:00.942Z,6.70
2022-11-30T09:36:31.125Z,6.70
2022-11-30T09:39:01.000Z,6.70
2022-11-30T09:41:54.546Z,6.60
2022-11-30T09:45:08.217Z,6.70
2022-11-30T09:47:59.546Z,6.70
2022-11-30T09:50:37.672Z,6.70
2022-11-30T09:53:29.988Z,6.70
2022-11-30T09:56:26.263Z,6.70
2022-11-30T09:59:22.731Z,6.70
2022-11-30T10:01:59.632Z,6.70
2022-11-30T10:04:33.080Z,6.70
2022-11-30T10:07:47.170Z,6.70
2022-11-30T10:10:36.952Z,6.80
2022-11-30T10:13:52.108Z,6.70
2022-11-30T10:17:03.988Z,6.80
2022-11-30T10:19:48.354Z,6.80
2022-11-30T10:23:09.025Z,6.80
2022-11-30T10:26:22.176Z,6.80
2022-11-30T10:28:56.194Z,6.80
2022-11-30T10:31:36.880Z,6.90
2022-11-30T10:34:23.301Z,6.80
2022-11-30T10:37:32.308Z,6.90
2022-11-30T10:40:00.624Z,6.90
2022-11-30T10:42:59.807Z,6.90
2022-11-30T10:45:29.206Z,6.80
2022-11-30T10:48:24.088Z,6.80
2022-11-30T10:50:57.141Z,6.90
2022-11-30T10:56:18.554Z,6.90
2022-11-30T10:58:54.847Z,6.90
2022-11-30T11:01:39.838Z,7.00
2022-11-30T11:04:28.018Z,7.00
2022-11-30T11:07:19.991Z,7.00
2022-11-30T11:09:58.466Z,7.00
2022-11-30T11:12:28.951Z,7.00
2022-11-30T11:15:18.827Z,7.00
2022-11-30T11:17:47.861Z,7.00
2022-11-30T11:20:47.546Z,7.00
2022-11-30T11:23:53.922Z,7.00
2022-11-30T11:26:39.365Z,7.00
2022-11-30T11:29:32.222Z,7.00
2022-11-30T11:32:26.387Z,7.00
2022-11-30T11:34:55.912Z,7.00
2022-11-30T11:37:32.065Z,7.00
2022-11-30T11:40:24.105Z,7.00
2022-11-30T11:43:01.805Z,7.00
2022-11-30T11:45:35.513Z,7.00
2022-11-30T11:48:09.321Z,6.90
2022-11-30T11:51:06.263Z,7.00
2022-11-30T11:53:47.438Z,7.00
2022-11-30T11:56:58.309Z,7.00
2022-11-30T12:00:00.285Z,7.00
2022-11-30T12:02:57.655Z,7.00
2022-11-30T12:08:42.402Z,7.00
2022-11-30T12:11:48.218Z,7.00
2022-11-30T12:14:18.619Z,7.00
2022-11-30T12:17:04.700Z,7.00
2022-11-30T12:20:08.035Z,7.00
2022-11-30T12:23:15.726Z,7.00
2022-11-30T12:27:01.209Z,7.00
2022-11-30T12:30:10.277Z,7.00
2022-11-30T12:33:03.426Z,6.90
2022-11-30T12:35:50.258Z,6.90
2022-11-30T12:38:44.293Z,6.90
2022-11-30T12:41:54.913Z,6.90
2022-11-30T12:45:08.756Z,6.90
2022-11-30T12:48:03.811Z,6.90
2022-11-30T12:50:45.223Z,6.90
2022-11-30T12:53:38.196Z,6.90
2022-11-30T12:56:53.497Z,6.90
2022-11-30T12:59:47.664Z,6.90
2022-11-30T13:03:02.926Z,6.80
2022-11-30T13:06:06.936Z,6.90
2022-11-30T13:08:48.363Z,6.80
2022-11-30T13:11:30.742Z,6.80
2022-11-30T13:14:00.003Z,6.80
2022-11-30T13:16:38.875Z,6.80
2022-11-30T13:19:28.902Z,6.80
2022-11-30T13:22:03.797Z,6.80
2022-11-30T13:27:50.242Z,6.80
2022-11-30T13:30:26.227Z,6.80
2022-11-30T13:32:59.300Z,6.80
2022-11-30T13:35:32.726Z,6.80
2022-11-30T13:41:07.215Z,6.80
2022-11-30T13:43:45.963Z,6.80
2022-11-30T13:46:25.860Z,6.80
2022-11-30T13:49:25.699Z,6.80
2022-11-30T13:54:58.281Z,6.80
2022-11-30T13:57:33.229Z,6.80
2022-11-30T14:00:22.416Z,6.80
2022-11-30T14:02:55.990Z,6.80
2022-11-30T14:05:47.473Z,6.80
2022-11-30T14:08:23.416Z,6.80
2022-11-30T14:11:12.705Z,6.80
2022-11-30T14:13:43.883Z,6.70
2022-11-30T14:16:46.307Z,6.70
2022-11-30T14:19:17.282Z,6.70
2022-11-30T14:21:54.428Z,6.70
2022-11-30T14:24:25.476Z,6.70
2022-11-30T14:26:58.937Z,6.80
2022-11-30T14:29:34.803Z,6.70
2022-11-30T14:32:22.119Z,6.80
2022-11-30T14:35:28.825Z,6.70
2022-11-30T14:38:02.680Z,6.70
2022-11-30T14:40:37.012Z,6.70
2022-11-30T14:43:07.316Z,6.70
2022-11-30T14:46:11.510Z,6.70
2022-11-30T14:48:46.600Z,6.60
2022-11-30T14:51:15.149Z,6.60
2022-11-30T14:54:13.449Z,6.60
2022-11-30T14:56:53.772Z,6.60
2022-11-30T14:59:50.486Z,6.60
2022-11-30T15:02:39.200Z,6.60
2022-11-30T15:05:11.782Z,6.60
2022-11-30T15:07:43.497Z,6.60
2022-11-30T15:10:28.083Z,6.60
2022-11-30T15:12:59.748Z,6.60
2022-11-30T15:15:41.573Z,6.50
2022-11-30T15:18:17.126Z,6.60
2022-11-30T15:21:06.023Z,6.60
2022-11-30T15:23:37.163Z,6.50
2022-11-30T15:26:48.501Z,6.50
2022-11-30T15:29:31.326Z,6.50
2022-11-30T15:32:24.875Z,6.50
2022-11-30T15:37:43.478Z,6.50
2022-11-30T15:40:18.884Z,6.50
2022-11-30T15:42:51.366Z,6.50
2022-11-30T15:45:37.547Z,6.50
2022-11-30T15:51:50.917Z,6.50
2022-11-30T15:55:04.597Z,6.50
2022-11-30T15:58:01.966Z,6.50
2022-11-30T16:00:30.468Z,6.50
2022-11-30T16:03:34.403Z,6.50
2022-11-30T16:06:07.920Z,6.50
2022-11-30T16:08:47.318Z,6.50
2022-11-30T16:11:20.048Z,6.50
2022-11-30T16:13:47.749Z,6.50
2022-11-30T16:16:22.549Z,6.50
2022-11-30T16:18:56.830Z,6.50
2022-11-30T16:24:19.090Z,6.50
2022-11-30T16:26:53.589Z,6.50
2022-11-30T16:29:29.353Z,6.50
2022-11-30T16:31:57.873Z,6.50
2022-11-30T16:34:30.621Z,6.50
2022-11-30T16:37:01.771Z,6.50
2022-11-30T16:39:29.714Z,6.50
2022-11-30T16:42:00.475Z,6.50
2022-11-30T16:44:37.601Z,6.50
2022-11-30T16:47:11.313Z,6.40
2022-11-30T16:49:42.178Z,6.40
2022-11-30T16:52:15.538Z,6.40
2022-11-30T16:54:43.051Z,6.40
2022-11-30T16:57:10.067Z,6.40
2022-11-30T16:59:42.413Z,6.40
2022-11-30T17:02:23.710Z,6.40
2022-11-30T17:04:52.203Z,6.40
2022-11-30T17:07:30.768Z,6.40
2022-11-30T17:10:07.031Z,6.40
2022-11-30T17:12:36.345Z,6.40
2022-11-30T17:15:06.213Z,6.40
2022-11-30T17:17:33.991Z,6.40
2022-11-30T17:20:04.432Z,6.40
2022-11-30T17:22:45.786Z,6.40
2022-11-30T17:25:20.547Z,6.40
2022-11-30T17:27:50.722Z,6.30
2022-11-30T17:30:32.299Z,6.30
2022-11-30T17:35:48.421Z,6.30
2022-11-30T17:38:16.227Z,6.30
2022-11-30T17:40:50.854Z,6.30
2022-11-30T17:43:20.134Z,6.30
2022-11-30T17:45:50.144Z,6.30
2022-11-30T17:48:20.014Z,6.30
2022-11-30T17:50:54.145Z,6.30
2022-11-30T17:53:32.844Z,6.30
2022-11-30T17:56:15.721Z,6.30
2022-11-30T17:58:48.436Z,6.30
2022-11-30T18:01:26.551Z,6.30
2022-11-30T18:03:57.239Z,6.30
2022-11-30T18:06:29.269Z,6.20
2022-11-30T18:09:02.838Z,6.20
2022-11-30T18:11:36.440Z,6.30
2022-11-30T18:14:19.057Z,6.20
2022-11-30T18:16:46.173Z,6.20
2022-11-30T18:19:15.640Z,6.30
2022-11-30T18:21:46.491Z,6.20
2022-11-30T18:24:19.996Z,6.20
2022-11-30T18:27:01.374Z,6.20
2022-11-30T18:29:29.990Z,6.20
2022-11-30T18:31:56.926Z,6.20
2022-11-30T18:34:33.801Z,6.20
2022-11-30T18:37:16.801Z,6.20
2022-11-30T18:39:47.088Z,6.20
2022-11-30T18:42:21.463Z,6.20
2022-11-30T18:44:51.270Z,6.20
2022-11-30T18:47:21.522Z,6.20
2022-11-30T18:50:00.123Z,6.20
2022-11-30T18:52:35.948Z,6.20
2022-11-30T18:55:07.198Z,6.10
2022-11-30T18:57:39.686Z,6.10
2022-11-30T19:00:23.612Z,6.10
2022-11-30T19:02:53.417Z,6.10
2022-11-30T19:05:39.834Z,6.10
2022-11-30T19:08:12.462Z,6.10
2022-11-30T19:10:50.628Z,6.10
2022-11-30T19:13:24.515Z,6.10
2022-11-30T19:16:17.961Z,6.10
2022-11-30T19:18:48.314Z,6.20
2022-11-30T19:21:24.925Z,6.10
2022-11-30T19:23:52.143Z,6.10
2022-11-30T19:26:27.927Z,6.10
2022-11-30T19:28:56.602Z,6.10
2022-11-30T19:31:27.245Z,6.10
2022-11-30T19:33:55.720Z,6.10
2022-11-30T19:36:28.336Z,6.00
2022-11-30T19:39:00.732Z,6.00
2022-11-30T19:41:28.531Z,6.00
2022-11-30T19:44:04.114Z,6.00
2022-11-30T19:46:36.680Z,6.00
2022-11-30T19:51:50.732Z,6.00
2022-11-30T19:54:21.479Z,6.00
2022-11-30T19:56:49.989Z,6.00
2022-11-30T19:59:25.773Z,6.00
2022-11-30T20:02:01.245Z,6.00
2022-11-30T20:04:28.712Z,6.00
2022-11-30T20:06:57.962Z,6.00
2022-11-30T20:09:26.634Z,6.00
2022-11-30T20:11:59.206Z,6.00
2022-11-30T20:14:28.697Z,6.00
2022-11-30T20:16:56.397Z,6.00
2022-11-30T20:19:38.446Z,6.00
2022-11-30T20:22:06.524Z,6.00
2022-11-30T20:24:41.917Z,6.00
2022-11-30T20:27:15.131Z,6.10
2022-11-30T20:30:18.222Z,6.10
2022-11-30T20:32:58.479Z,6.10
2022-11-30T20:35:31.789Z,6.10
2022-11-30T20:38:07.291Z,6.10
2022-11-30T20:40:36.755Z,6.10
2022-11-30T20:43:03.587Z,6.10
2022-11-30T20:45:32.826Z,6.10
2022-11-30T20:48:03.678Z,6.10
2022-11-30T20:50:31.190Z,6.10
2022-11-30T20:53:01.145Z,6.10
2022-11-30T20:55:30.174Z,6.10
2022-11-30T20:58:00.148Z,6.10
2022-11-30T21:00:30.580Z,6.10
2022-11-30T21:03:00.699Z,6.10
2022-11-30T21:05:33.734Z,6.10
2022-11-30T21:08:09.649Z,6.10
2022-11-30T21:10:40.880Z,6.10
2022-11-30T21:13:08.755Z,6.00
2022-11-30T21:15:48.540Z,6.00
2022-11-30T21:18:21.261Z,6.00
2022-11-30T21:20:58.306Z,6.00
2022-11-30T21:23:37.885Z,6.00
2022-11-30T21:29:13.869Z,6.00
2022-11-30T21:34:33.874Z,6.00
2022-11-30T21:37:00.763Z,6.00
2022-11-30T21:39:29.598Z,6.00
2022-11-30T21:42:16.299Z,5.90
2022-11-30T21:44:45.715Z,5.90
2022-11-30T21:47:28.695Z,5.90
2022-11-30T21:50:08.372Z,5.90
2022-11-30T21:52:49.909Z,5.90
2022-11-30T21:55:26.218Z,6.00
2022-11-30T21:57:57.549Z,6.00
2022-11-30T22:00:31.445Z,5.90
2022-11-30T22:03:00.882Z,6.00
2022-11-30T22:05:28.447Z,5.90
2022-11-30T22:08:01.013Z,5.90
2022-11-30T22:10:36.091Z,6.00
2022-11-30T22:13:08.383Z,6.00
2022-11-30T22:15:36.674Z,5.90
2022-11-30T22:18:14.374Z,5.90
2022-11-30T22:20:44.385Z,5.90
2022-11-30T22:23:24.056Z,5.90
2022-11-30T22:26:21.404Z,5.90
2022-11-30T22:29:02.822Z,5.90
2022-11-30T22:31:34.330Z,6.00
2022-11-30T22:34:13.755Z,6.00
2022-11-30T22:36:47.772Z,6.00
2022-11-30T22:39:27.403Z,5.90
2022-11-30T22:42:08.951Z,5.90
2022-11-30T22:44:45.110Z,5.90
2022-11-30T22:47:14.715Z,5.90
2022-11-30T22:49:42.867Z,5.90
2022-11-30T22:52:42.287Z,5.90
2022-11-30T22:55:15.909Z,5.90
2022-11-30T22:57:43.780Z,6.00
2022-11-30T23:00:26.275Z,5.90
2022-11-30T23:02:54.551Z,6.00
2022-11-30T23:05:22.386Z,6.00
2022-11-30T23:07:51.072Z,5.90
2022-11-30T23:13:03.103Z,5.90
2022-11-30T23:15:35.939Z,5.90
2022-11-30T23:18:07.710Z,5.80
2022-11-30T23:20:38.294Z,5.80
2022-11-30T23:23:06.479Z,5.80
2022-11-30T23:25:36.340Z,5.80
2022-11-30T23:28:08.179Z,5.80
2022-11-30T23:30:36.630Z,5.80
2022-11-30T23:33:07.696Z,5.80
2022-11-30T23:35:38.312Z,5.80
2022-11-30T23:38:14.467Z,5.80
2022-11-30T23:40:49.826Z,5.80
2022-11-30T23:43:23.115Z,5.80
2022-11-30T23:45:51.321Z,5.90
2022-11-30T23:48:18.632Z,5.80
2022-11-30T23:50:49.188Z,5.90
2022-11-30T23:53:19.590Z,5.80
2022-11-30T23:56:02.819Z,5.90
2022-11-30T23:58:33.235Z,5.90
